Time;durP1;ratioP1;P1;durP2;ratioP2;P2;SDS_P1;SDS_P2;PMS_P1;PMS_P2;Temp;Humidity;BMP_temperature;BMP_pressure;BME280_temperature;BME280_humidity;BME280_pressure;Samples;Min_cycle;Max_cycle;Signal;HPM_P1;HPM_P2
2022/10/15 00:00:29;;;;;;;10.47;9.37;;;16.00;1.00;;;;;;5046641;28;20203;-63
2022/10/15 00:02:55;;;;;;;10.03;8.57;;;15.90;1.00;;;;;;5048164;28;20219;-63
2022/10/15 00:05:21;;;;;;;11.93;9.43;;;16.00;1.00;;;;;;5048665;28;20236;-63
2022/10/15 00:07:47;;;;;;;12.57;9.30;;;16.00;1.00;;;;;;5047489;28;20227;-63
2022/10/15 00:10:13;;;;;;;11.30;9.00;;;15.90;1.00;;;;;;5047044;28;20780;-63
2022/10/15 00:12:40;;;;;;;11.60;8.97;;;15.90;1.00;;;;;;5049894;28;20787;-63
2022/10/15 00:15:06;;;;;;;10.60;9.50;;;15.90;1.00;;;;;;5052345;28;20203;-64
2022/10/15 00:17:35;;;;;;;10.03;8.97;;;16.00;1.00;;;;;;5053622;28;20448;-64
2022/10/15 00:20:03;;;;;;;10.40;9.30;;;16.00;1.00;;;;;;5048352;28;20437;-63
2022/10/15 00:22:28;;;;;;;11.57;9.90;;;16.00;1.00;;;;;;5051911;28;20448;-63
2022/10/15 00:24:54;;;;;;;11.60;9.70;;;16.00;1.00;;;;;;5047824;28;20938;-64
2022/10/15 00:27:19;;;;;;;11.00;9.13;;;16.10;1.00;;;;;;5051853;28;20714;-63
2022/10/15 00:29:45;;;;;;;12.07;9.43;;;15.90;1.00;;;;;;5051466;28;20247;-65
2022/10/15 00:32:10;;;;;;;13.57;10.70;;;15.90;1.00;;;;;;5048871;28;20261;-64
2022/10/15 00:34:36;;;;;;;14.97;9.20;;;15.90;1.00;;;;;;5051605;28;20200;-62
2022/10/15 00:37:02;;;;;;;10.30;9.23;;;16.00;1.00;;;;;;5052562;28;20255;-64
2022/10/15 00:39:27;;;;;;;11.63;10.43;;;15.90;1.00;;;;;;5052632;28;20622;-64
2022/10/15 00:41:53;;;;;;;11.20;10.00;;;15.90;1.00;;;;;;5040747;28;20186;-63
2022/10/15 00:44:24;;;;;;;11.90;9.87;;;15.80;1.00;;;;;;5047349;28;20242;-63
2022/10/15 00:47:02;;;;;;;12.10;10.30;;;15.90;1.00;;;;;;5049526;28;20189;-63
2022/10/15 00:49:33;;;;;;;13.03;10.47;;;15.80;1.00;;;;;;5052357;28;20456;-64
2022/10/15 00:52:07;;;;;;;11.53;10.40;;;15.80;1.00;;;;;;5051980;28;20505;-63
2022/10/15 00:54:39;;;;;;;13.07;11.40;;;15.90;1.00;;;;;;5047061;28;21052;-63
2022/10/15 00:57:05;;;;;;;11.27;10.10;;;15.90;1.00;;;;;;5052072;28;20909;-63
2022/10/15 00:59:34;;;;;;;12.27;10.97;;;15.90;1.00;;;;;;5049288;28;20445;-63
2022/10/15 01:02:00;;;;;;;13.33;11.13;;;15.90;1.00;;;;;;5047463;28;20548;-64
2022/10/15 01:04:28;;;;;;;12.30;9.13;;;15.90;1.00;;;;;;5046924;28;20426;-64
2022/10/15 01:06:54;;;;;;;12.03;10.70;;;15.80;1.00;;;;;;5051424;28;20528;-63
2022/10/15 01:09:19;;;;;;;12.73;11.00;;;15.80;1.00;;;;;;5051487;28;20521;-64
2022/10/15 01:11:46;;;;;;;12.60;10.70;;;15.80;1.00;;;;;;5049801;28;20629;-63
2022/10/15 01:14:35;;;;;;;12.07;10.97;;;15.70;1.00;;;;;;5047190;28;20192;-63
2022/10/15 01:17:16;;;;;;;13.77;11.10;;;15.80;1.00;;;;;;5046559;28;20452;-63
2022/10/15 01:20:00;;;;;;;13.20;10.60;;;15.70;1.00;;;;;;5051143;28;20431;-63
2022/10/15 01:23:10;;;;;;;13.63;11.67;;;15.70;1.00;;;;;;5045961;28;21012;-63
2022/10/15 01:26:07;;;;;;;13.10;11.70;;;15.80;1.00;;;;;;5051991;28;20419;-64
2022/10/15 01:29:02;;;;;;;12.97;11.53;;;15.70;1.00;;;;;;5051205;28;20505;-63
2022/10/15 01:31:52;;;;;;;14.37;11.00;;;15.70;1.00;;;;;;5051046;28;20419;-63
2022/10/15 01:34:34;;;;;;;11.67;10.43;;;15.70;1.00;;;;;;5051851;28;20984;-62
2022/10/15 01:37:23;;;;;;;12.50;11.20;;;15.70;1.00;;;;;;5050310;28;20492;-63
2022/10/15 01:40:03;;;;;;;12.73;11.40;;;15.70;1.00;;;;;;5049955;28;20845;-65
2022/10/15 01:42:36;;;;;;;15.57;11.87;;;15.60;1.00;;;;;;5049408;28;20451;-64
2022/10/15 01:45:07;;;;;;;16.23;11.60;;;15.70;1.00;;;;;;5047826;28;20479;-64
2022/10/15 01:47:48;;;;;;;14.23;11.90;;;15.80;1.00;;;;;;5049367;28;21007;-63
2022/10/15 01:50:18;;;;;;;16.27;12.30;;;15.80;1.00;;;;;;5046958;28;20507;-64
2022/10/15 01:52:44;;;;;;;13.93;12.27;;;15.70;1.00;;;;;;5048763;28;20550;-64
2022/10/15 01:55:13;;;;;;;12.63;11.33;;;15.70;1.00;;;;;;5048735;28;20422;-64
2022/10/15 01:57:42;;;;;;;12.63;11.17;;;15.70;1.00;;;;;;5049372;28;20471;-64
2022/10/15 02:00:08;;;;;;;13.33;11.27;;;15.70;1.00;;;;;;5048982;28;20424;-63
2022/10/15 02:02:34;;;;;;;14.23;11.20;;;15.70;1.00;;;;;;5046810;28;20445;-64
2022/10/15 02:04:59;;;;;;;14.90;12.63;;;15.70;1.00;;;;;;5050837;28;20446;-63
2022/10/15 02:07:55;;;;;;;14.47;11.60;;;15.70;1.00;;;;;;5050226;28;20472;-64
2022/10/15 02:10:28;;;;;;;13.70;12.20;;;15.60;1.00;;;;;;5046209;28;20207;-63
2022/10/15 02:13:15;;;;;;;12.67;11.37;;;15.70;1.00;;;;;;5049458;28;20987;-62
2022/10/15 02:16:06;;;;;;;13.60;12.30;;;15.70;1.00;;;;;;5044554;28;20952;-63
2022/10/15 02:18:35;;;;;;;13.33;11.93;;;15.60;1.00;;;;;;5047782;28;20446;-62
2022/10/15 02:21:07;;;;;;;14.03;12.57;;;15.70;1.00;;;;;;5050230;28;20449;-63
2022/10/15 02:23:44;;;;;;;16.00;12.33;;;15.60;1.00;;;;;;5049128;28;20416;-64
2022/10/15 02:26:12;;;;;;;12.73;11.20;;;15.60;1.00;;;;;;5050054;28;20436;-63
2022/10/15 02:28:41;;;;;;;14.23;12.73;;;15.60;1.00;;;;;;5049199;28;20425;-63
2022/10/15 02:31:08;;;;;;;14.40;12.83;;;15.60;1.00;;;;;;5049767;28;20448;-63
2022/10/15 02:33:35;;;;;;;13.87;12.50;;;15.70;1.00;;;;;;5048786;28;20444;-63
2022/10/15 02:36:01;;;;;;;13.50;12.10;;;15.70;1.00;;;;;;5048722;28;20467;-63
2022/10/15 02:38:30;;;;;;;14.20;12.80;;;15.70;1.00;;;;;;5049181;28;20479;-63
2022/10/15 02:40:56;;;;;;;14.70;13.17;;;15.70;1.00;;;;;;5046935;28;20432;-63
2022/10/15 02:43:22;;;;;;;14.10;12.70;;;15.70;1.00;;;;;;5048062;28;20467;-63
2022/10/15 02:45:48;;;;;;;22.23;13.23;;;15.70;1.00;;;;;;5045148;28;21035;-63
2022/10/15 02:48:14;;;;;;;14.97;12.50;;;15.60;1.00;;;;;;5048728;28;20188;-63
2022/10/15 02:50:40;;;;;;;14.03;12.50;;;15.60;1.00;;;;;;5048857;28;20427;-62
2022/10/15 02:53:06;;;;;;;13.93;12.53;;;15.70;1.00;;;;;;5048532;28;20433;-63
2022/10/15 02:55:32;;;;;;;14.77;13.27;;;15.70;1.00;;;;;;5049485;28;20194;-63
2022/10/15 02:57:57;;;;;;;15.30;13.40;;;15.70;1.00;;;;;;5048167;28;20233;-64
2022/10/15 03:00:23;;;;;;;13.63;12.33;;;15.70;1.00;;;;;;5050571;28;20238;-64
2022/10/15 03:02:49;;;;;;;15.07;12.47;;;15.80;1.00;;;;;;5047841;28;20188;-63
2022/10/15 03:05:14;;;;;;;14.60;12.57;;;15.70;1.00;;;;;;5049137;28;20179;-64
2022/10/15 03:07:40;;;;;;;14.10;12.70;;;15.70;1.00;;;;;;5049378;28;20451;-64
2022/10/15 03:10:06;;;;;;;16.37;13.63;;;15.70;1.00;;;;;;5049183;28;20702;-64
2022/10/15 03:12:32;;;;;;;15.50;13.90;;;15.70;1.00;;;;;;5047046;28;20233;-64
2022/10/15 03:14:58;;;;;;;15.07;13.60;;;15.70;1.00;;;;;;5048484;28;20909;-64
2022/10/15 03:17:23;;;;;;;14.70;13.20;;;15.60;1.00;;;;;;5046125;28;20427;-64
2022/10/15 03:19:49;;;;;;;15.70;12.93;;;15.60;1.00;;;;;;5049707;28;20195;-63
2022/10/15 03:22:14;;;;;;;14.30;12.83;;;15.60;1.00;;;;;;5046190;28;20198;-64
2022/10/15 03:24:40;;;;;;;13.53;12.23;;;15.70;1.00;;;;;;5046730;28;20276;-64
2022/10/15 03:27:06;;;;;;;16.40;13.47;;;15.70;1.00;;;;;;5045495;28;20635;-64
2022/10/15 03:29:31;;;;;;;15.17;13.57;;;15.70;1.00;;;;;;5057185;28;20191;-63
2022/10/15 03:31:57;;;;;;;13.40;12.00;;;16.00;1.00;;;;;;5048451;28;20263;-64
2022/10/15 03:34:22;;;;;;;14.50;12.30;;;15.70;1.00;;;;;;5050099;28;20197;-64
2022/10/15 03:36:48;;;;;;;14.80;13.20;;;15.70;1.00;;;;;;5047924;28;20185;-62
2022/10/15 03:39:13;;;;;;;13.13;11.73;;;15.70;1.00;;;;;;5046860;28;20199;-63
2022/10/15 03:41:39;;;;;;;15.03;13.40;;;15.70;1.00;;;;;;5047187;28;20717;-63
2022/10/15 03:44:06;;;;;;;14.70;13.20;;;15.70;1.00;;;;;;5049820;28;20219;-63
2022/10/15 03:46:32;;;;;;;14.37;12.93;;;15.70;1.00;;;;;;5049183;28;20243;-63
2022/10/15 03:48:58;;;;;;;18.60;13.67;;;17.10;1.00;;;;;;5053032;28;20446;-63
2022/10/15 03:51:23;;;;;;;14.93;13.43;;;15.70;1.00;;;;;;5050813;28;20459;-63
2022/10/15 03:53:49;;;;;;;15.53;12.50;;;15.60;1.00;;;;;;5051173;28;20527;-64
2022/10/15 03:56:15;;;;;;;18.80;13.33;;;15.60;1.00;;;;;;5052686;28;20191;-62
2022/10/15 03:58:41;;;;;;;16.60;14.27;;;15.60;1.00;;;;;;5053776;28;20210;-64
2022/10/15 04:01:11;;;;;;;15.10;12.33;;;15.80;1.00;;;;;;5050449;28;20468;-64
2022/10/15 04:03:37;;;;;;;13.90;12.50;;;15.70;1.00;;;;;;5051905;28;20193;-64
2022/10/15 04:06:02;;;;;;;14.30;12.87;;;15.80;1.00;;;;;;5053528;28;20453;-64
2022/10/15 04:08:28;;;;;;;16.50;13.77;;;15.70;1.00;;;;;;5052425;28;20426;-63
2022/10/15 04:10:54;;;;;;;15.27;13.77;;;15.70;1.00;;;;;;5051528;28;20265;-63
2022/10/15 04:13:20;;;;;;;14.37;12.97;;;;;;;;;;5050345;28;20648;-64
2022/10/15 04:15:45;;;;;;;15.07;13.57;;;15.70;1.00;;;;;;5051917;28;20514;-62
2022/10/15 04:18:11;;;;;;;13.50;12.20;;;15.70;1.00;;;;;;5050274;28;20453;-63
2022/10/15 04:20:37;;;;;;;14.10;12.70;;;15.70;1.00;;;;;;5052148;28;20653;-63
2022/10/15 04:23:03;;;;;;;16.83;13.17;;;15.70;1.00;;;;;;5053983;28;20295;-63
2022/10/15 04:25:28;;;;;;;14.77;13.00;;;15.70;1.00;;;;;;5052642;28;20420;-63
2022/10/15 04:27:54;;;;;;;14.77;13.27;;;15.60;1.00;;;;;;5052487;28;20218;-64
2022/10/15 04:30:19;;;;;;;13.63;12.27;;;15.60;1.00;;;;;;5053020;28;20270;-64
2022/10/15 04:32:45;;;;;;;13.40;12.00;;;15.70;1.00;;;;;;5052926;28;20530;-63
2022/10/15 04:35:11;;;;;;;14.20;12.70;;;15.90;1.00;;;;;;5052930;28;20237;-63
2022/10/15 04:37:36;;;;;;;15.63;13.70;;;15.60;1.00;;;;;;5052292;28;20578;-63
2022/10/15 04:40:03;;;;;;;14.23;12.10;;;15.60;1.00;;;;;;5053250;28;20202;-63
2022/10/15 04:42:30;;;;;;;12.40;11.27;;;15.60;1.00;;;;;;5053768;28;20680;-64
2022/10/15 04:44:55;;;;;;;14.73;13.20;;;15.60;1.00;;;;;;5052044;28;20445;-63
2022/10/15 04:47:21;;;;;;;14.13;12.63;;;15.70;1.00;;;;;;5048456;28;20480;-63
2022/10/15 04:49:47;;;;;;;14.10;12.90;;;15.80;1.00;;;;;;5051855;28;20786;-63
2022/10/15 04:52:12;;;;;;;15.97;12.60;;;15.60;1.00;;;;;;5047757;28;20187;-64
2022/10/15 04:54:38;;;;;;;14.37;12.93;;;15.60;1.00;;;;;;5049423;28;20197;-65
2022/10/15 04:57:04;;;;;;;14.43;12.70;;;15.60;1.00;;;;;;5047594;28;20198;-64
2022/10/15 04:59:30;;;;;;;13.80;12.50;;;15.60;1.00;;;;;;5053860;28;20561;-65
2022/10/15 05:01:55;;;;;;;14.13;12.63;;;15.60;1.00;;;;;;5056923;28;20426;-64
2022/10/15 05:04:21;;;;;;;13.53;12.13;;;15.50;1.00;;;;;;5050867;28;20200;-64
2022/10/15 05:06:47;;;;;;;17.33;14.50;;;;;;;;;;5052145;28;20749;-64
2022/10/15 05:09:12;;;;;;;15.37;12.90;;;15.50;1.00;;;;;;5052271;28;20264;-62
2022/10/15 05:11:38;;;;;;;14.47;12.97;;;15.40;1.00;;;;;;5051385;28;20945;-64
2022/10/15 05:14:05;;;;;;;15.43;13.47;;;15.40;1.00;;;;;;5051930;28;20548;-62
2022/10/15 05:16:31;;;;;;;14.03;12.70;;;15.50;1.00;;;;;;5050932;28;20457;-65
2022/10/15 05:19:00;;;;;;;16.30;14.17;;;15.50;1.00;;;;;;5049712;28;20443;-64
2022/10/15 05:21:27;;;;;;;15.40;13.90;;;15.50;1.00;;;;;;5049852;28;20453;-64
2022/10/15 05:23:53;;;;;;;14.33;12.53;;;15.50;1.00;;;;;;5047000;28;20431;-64
2022/10/15 05:26:21;;;;;;;14.37;12.87;;;15.50;1.00;;;;;;5050548;28;20542;-64
2022/10/15 05:28:47;;;;;;;15.33;13.73;;;15.50;1.00;;;;;;5051209;28;20849;-63
2022/10/15 05:31:15;;;;;;;13.43;12.00;;;15.60;1.00;;;;;;5049353;28;20535;-64
2022/10/15 05:33:42;;;;;;;12.90;11.67;;;15.60;1.00;;;;;;5057172;28;20505;-63
2022/10/15 05:36:28;;;;;;;14.70;13.20;;;15.60;1.00;;;;;;5049409;28;20810;-64
2022/10/15 05:38:57;;;;;;;13.77;12.37;;;15.50;1.00;;;;;;5049357;28;20435;-63
2022/10/15 05:41:24;;;;;;;14.20;12.80;;;15.60;1.00;;;;;;5055687;28;20565;-63
2022/10/15 05:43:51;;;;;;;14.17;12.77;;;15.60;1.00;;;;;;5056360;28;20513;-64
2022/10/15 05:46:17;;;;;;;14.00;12.07;;;15.60;1.00;;;;;;5059606;28;20427;-64
2022/10/15 05:48:50;;;;;;;14.27;12.77;;;15.60;1.00;;;;;;5049468;28;20465;-63
2022/10/15 05:51:16;;;;;;;14.90;11.90;;;15.60;1.00;;;;;;5046976;28;20472;-65
2022/10/15 05:53:42;;;;;;;12.60;11.30;;;15.60;1.00;;;;;;5050294;28;20951;-63
2022/10/15 05:56:09;;;;;;;12.80;11.60;;;15.60;1.00;;;;;;5048285;28;20444;-64
2022/10/15 05:58:35;;;;;;;14.70;13.13;;;15.60;1.00;;;;;;5050081;28;20448;-64
2022/10/15 06:01:03;;;;;;;12.43;11.23;;;15.60;1.00;;;;;;5049313;28;20952;-64
2022/10/15 06:03:29;;;;;;;14.80;12.03;;;15.60;1.00;;;;;;5050096;28;20429;-64
2022/10/15 06:05:54;;;;;;;14.53;12.13;;;15.60;1.00;;;;;;5050134;28;20424;-64
2022/10/15 06:08:20;;;;;;;12.23;10.37;;;15.60;1.00;;;;;;5048513;28;20533;-63
2022/10/15 06:10:47;;;;;;;14.00;12.37;;;15.60;1.00;;;;;;5045458;28;20188;-64
2022/10/15 06:13:12;;;;;;;13.57;12.13;;;15.60;1.00;;;;;;5049183;28;20493;-64
2022/10/15 06:15:40;;;;;;;12.27;10.60;;;15.70;1.00;;;;;;5047796;28;20426;-66
2022/10/15 06:18:05;;;;;;;11.67;10.57;;;15.70;1.00;;;;;;5048680;28;20813;-65
2022/10/15 06:20:31;;;;;;;11.53;10.33;;;15.70;1.00;;;;;;5049348;28;20986;-65
2022/10/15 06:22:58;;;;;;;17.03;11.60;;;15.80;1.00;;;;;;5049241;28;20205;-64
2022/10/15 06:25:24;;;;;;;12.63;11.43;;;15.80;1.00;;;;;;5051238;28;20407;-64
2022/10/15 06:27:50;;;;;;;12.23;10.97;;;15.90;1.00;;;;;;5050661;28;20782;-64
2022/10/15 06:30:15;;;;;;;12.60;11.27;;;15.90;1.00;;;;;;5050640;28;20446;-64
2022/10/15 06:32:49;;;;;;;12.70;11.40;;;16.00;1.00;;;;;;5048277;28;20197;-65
2022/10/15 06:35:14;;;;;;;12.63;11.13;;;16.10;1.00;;;;;;5047303;28;20267;-65
2022/10/15 06:37:40;;;;;;;11.90;10.80;;;16.10;1.00;;;;;;5049168;28;20475;-65
2022/10/15 06:40:06;;;;;;;12.83;10.43;;;16.20;1.00;;;;;;5050042;28;20657;-64
2022/10/15 06:42:31;;;;;;;11.60;10.53;;;16.30;1.00;;;;;;5045014;28;20625;-62
2022/10/15 06:44:57;;;;;;;12.50;11.20;;;16.30;1.00;;;;;;5048203;28;20498;-64
2022/10/15 06:47:23;;;;;;;11.43;10.17;;;16.70;1.00;;;;;;5048785;28;20199;-64
2022/10/15 06:49:48;;;;;;;11.43;10.30;;;16.60;1.00;;;;;;5045833;28;20203;-65
2022/10/15 06:52:14;;;;;;;12.67;9.30;;;16.60;1.00;;;;;;5044659;28;20211;-64
2022/10/15 06:54:40;;;;;;;9.80;8.87;;;16.60;1.00;;;;;;5049903;28;20195;-64
2022/10/15 06:57:05;;;;;;;11.23;10.17;;;16.60;1.00;;;;;;5046156;28;20455;-64
2022/10/15 06:59:31;;;;;;;10.57;9.50;;;16.60;1.00;;;;;;5044631;28;20201;-64
2022/10/15 07:01:56;;;;;;;10.47;9.57;;;16.60;1.00;;;;;;5055128;28;20199;-63
2022/10/15 07:04:23;;;;;;;10.70;9.10;;;16.60;1.00;;;;;;5054560;28;20185;-62
2022/10/15 07:06:48;;;;;;;10.53;9.53;;;16.60;1.00;;;;;;5047369;28;20524;-63
2022/10/15 07:09:14;;;;;;;10.87;9.90;;;16.60;1.00;;;;;;5049032;28;20454;-62
2022/10/15 07:11:40;;;;;;;10.80;9.80;;;16.60;1.00;;;;;;5049246;28;20319;-63
2022/10/15 07:14:05;;;;;;;10.27;9.27;;;16.70;1.00;;;;;;5048324;28;20198;-63
2022/10/15 07:16:31;;;;;;;9.67;8.87;;;16.70;1.00;;;;;;5049390;28;20227;-63
2022/10/15 07:18:56;;;;;;;10.20;8.43;;;16.70;1.00;;;;;;5049413;28;20538;-63
2022/10/15 07:21:22;;;;;;;9.97;9.07;;;18.80;1.00;;;;;;5047260;28;20199;-63
2022/10/15 07:23:48;;;;;;;10.63;9.63;;;16.70;1.00;;;;;;5043821;28;20215;-63
2022/10/15 07:26:13;;;;;;;8.90;8.20;;;16.90;1.00;;;;;;5046489;28;20808;-62
2022/10/15 07:28:39;;;;;;;9.93;8.07;;;16.80;1.00;;;;;;5044365;28;20231;-64
2022/10/15 07:31:06;;;;;;;8.33;7.63;;;16.90;1.00;;;;;;5043590;28;20202;-63
2022/10/15 07:33:36;;;;;;;8.83;7.97;;;17.10;1.00;;;;;;5049606;28;20666;-64
2022/10/15 07:36:06;;;;;;;8.20;7.43;;;17.10;1.00;;;;;;5046554;28;20520;-64
2022/10/15 07:38:33;;;;;;;9.30;7.10;;;17.10;1.00;;;;;;5050617;28;20474;-60
2022/10/15 07:41:00;;;;;;;7.60;6.90;;;17.30;1.00;;;;;;5054701;28;20855;-60
2022/10/15 07:43:26;;;;;;;7.77;6.73;;;17.80;1.00;;;;;;5057311;28;20451;-60
2022/10/15 07:45:52;;;;;;;7.17;6.57;;;17.80;1.00;;;;;;5062032;28;21042;-59
2022/10/15 07:48:18;;;;;;;7.27;6.57;;;18.00;1.00;;;;;;5050070;28;20515;-59
2022/10/15 07:50:43;;;;;;;6.87;6.20;;;18.10;1.00;;;;;;5056772;28;20182;-58
2022/10/15 07:53:09;;;;;;;6.17;5.57;;;18.30;1.00;;;;;;5056756;28;20197;-59
2022/10/15 07:55:34;;;;;;;6.43;5.93;;;18.30;1.00;;;;;;5048088;28;20174;-60
2022/10/15 07:58:00;;;;;;;6.30;5.70;;;18.40;1.00;;;;;;5050345;28;20213;-59
2022/10/15 08:00:26;;;;;;;5.70;5.20;;;18.50;1.00;;;;;;5046755;28;21159;-59
2022/10/15 08:02:51;;;;;;;5.30;4.80;;;18.50;1.00;;;;;;5045202;28;20228;-60
2022/10/15 08:05:17;;;;;;;6.47;5.87;;;18.60;1.00;;;;;;5048161;28;20307;-59
2022/10/15 08:07:42;;;;;;;5.70;5.20;;;18.60;1.00;;;;;;5047226;28;20193;-59
2022/10/15 08:10:09;;;;;;;5.23;4.83;;;18.50;1.00;;;;;;5047760;28;20222;-60
2022/10/15 08:12:35;;;;;;;5.30;4.80;;;18.50;1.00;;;;;;5053132;28;20261;-60
2022/10/15 08:15:01;;;;;;;5.53;5.03;;;18.50;1.00;;;;;;5053793;28;20952;-59
2022/10/15 08:17:27;;;;;;;5.80;5.30;;;18.50;1.00;;;;;;5047633;28;20574;-60
2022/10/15 08:19:52;;;;;;;4.70;4.30;;;18.50;1.00;;;;;;5046104;28;20426;-59
2022/10/15 08:22:18;;;;;;;5.40;4.90;;;18.50;1.00;;;;;;5048111;28;20281;-60
2022/10/15 08:24:44;;;;;;;5.80;4.90;;;18.30;1.00;;;;;;5046222;28;20196;-60
2022/10/15 08:27:09;;;;;;;4.87;4.40;;;18.40;1.00;;;;;;5048886;28;20193;-60
2022/10/15 08:29:35;;;;;;;5.00;4.60;;;18.40;1.00;;;;;;5048818;28;20213;-59
2022/10/15 08:32:00;;;;;;;5.67;5.10;;;18.40;1.00;;;;;;5048952;28;20182;-59
2022/10/15 08:34:26;;;;;;;4.73;4.37;;;18.60;1.00;;;;;;5053175;28;20177;-59
2022/10/15 08:36:51;;;;;;;4.87;4.47;;;18.60;1.00;;;;;;5057462;28;20285;-60
2022/10/15 08:39:17;;;;;;;5.40;4.90;;;18.80;1.00;;;;;;5052329;28;20240;-58
2022/10/15 08:41:58;;;;;;;4.47;4.17;;;18.70;1.00;;;;;;5052338;28;20181;-59
2022/10/15 08:44:27;;;;;;;4.60;4.30;;;18.80;1.00;;;;;;5054172;28;20219;-59
2022/10/15 08:47:01;;;;;;;4.60;4.20;;;18.80;1.00;;;;;;5054865;28;20449;-60
2022/10/15 08:49:52;;;;;;;4.33;3.97;;;18.80;1.00;;;;;;5049079;28;20461;-58
2022/10/15 08:52:24;;;;;;;5.70;5.20;;;18.80;1.00;;;;;;5055391;28;20846;-58
2022/10/15 08:54:50;;;;;;;4.77;4.37;;;18.80;1.00;;;;;;5055999;28;20424;-59
2022/10/15 08:57:40;;;;;;;4.80;4.40;;;18.80;1.00;;;;;;5047316;28;20942;-59
2022/10/15 09:00:28;;;;;;;3.93;3.53;;;18.80;1.00;;;;;;5045807;28;20941;-58
2022/10/15 09:02:53;;;;;;;4.00;3.70;;;18.70;1.00;;;;;;5058699;28;20510;-58
2022/10/15 09:05:36;;;;;;;4.33;3.90;;;18.50;1.00;;;;;;5063324;28;20920;-60
2022/10/15 09:08:15;;;;;;;3.30;3.10;;;18.50;1.00;;;;;;5059383;28;20185;-59
2022/10/15 09:10:51;;;;;;;3.77;3.47;;;18.40;1.00;;;;;;5066867;28;20454;-58
2022/10/15 09:13:39;;;;;;;5.20;3.90;;;18.30;1.00;;;;;;5065925;28;20774;-60
2022/10/15 09:16:15;;;;;;;3.60;3.30;;;18.40;1.00;;;;;;5067005;28;20452;-60
2022/10/15 09:18:45;;;;;;;4.10;3.70;;;18.50;1.00;;;;;;5048918;28;20498;-59
2022/10/15 09:21:13;;;;;;;4.73;3.83;;;18.70;1.00;;;;;;5055739;28;20448;-60
2022/10/15 09:23:40;;;;;;;5.30;3.27;;;;;;;;;;5062059;28;20427;-59
2022/10/15 09:26:11;;;;;;;3.17;2.90;;;19.20;1.00;;;;;;5055699;28;20454;-58
2022/10/15 09:29:02;;;;;;;3.63;3.17;;;19.30;1.00;;;;;;5045740;28;20445;-58
2022/10/15 09:32:11;;;;;;;2.80;2.60;;;19.40;1.00;;;;;;5055469;28;20431;-58
2022/10/15 09:34:53;;;;;;;4.30;3.17;;;19.70;1.00;;;;;;5060344;28;20427;-59
2022/10/15 09:37:25;;;;;;;4.50;3.97;;;19.90;1.00;;;;;;5047955;28;20523;-58
2022/10/15 09:40:06;;;;;;;3.10;2.80;;;20.00;1.00;;;;;;5050556;28;20422;-60
2022/10/15 09:42:37;;;;;;;3.53;2.93;;;19.80;1.00;;;;;;5054679;28;20584;-59
2022/10/15 09:45:08;;;;;;;3.80;3.27;;;19.50;1.00;;;;;;5058673;28;20558;-59
2022/10/15 09:47:35;;;;;;;2.93;2.73;;;19.20;1.00;;;;;;5053804;28;20474;-59
2022/10/15 09:50:06;;;;;;;3.63;3.33;;;19.20;1.00;;;;;;5050747;28;20511;-58
2022/10/15 09:52:43;;;;;;;3.47;3.27;;;19.20;1.00;;;;;;5053472;28;20451;-58
2022/10/15 09:55:37;;;;;;;3.20;2.90;;;19.40;1.00;;;;;;5052047;28;20456;-58
2022/10/15 09:58:26;;;;;;;4.00;3.63;;;19.40;1.00;;;;;;5052407;28;20451;-57
2022/10/15 10:01:00;;;;;;;5.17;4.77;;;19.50;1.00;;;;;;5052193;28;20536;-59
2022/10/15 10:03:28;;;;;;;3.77;3.37;;;19.70;1.00;;;;;;5057426;28;20463;-59
2022/10/15 10:06:07;;;;;;;4.07;2.87;;;20.00;1.00;;;;;;5056798;28;20448;-58
2022/10/15 10:08:51;;;;;;;3.73;2.60;;;20.40;1.00;;;;;;5058450;28;20858;-59
2022/10/15 10:11:18;;;;;;;3.60;3.30;;;20.50;1.00;;;;;;5058575;28;20455;-58
2022/10/15 10:13:54;;;;;;;3.33;2.87;;;20.80;1.00;;;;;;5053425;28;20886;-59
2022/10/15 10:16:20;;;;;;;4.90;3.30;;;20.80;1.00;;;;;;5055838;28;20455;-59
2022/10/15 10:19:14;;;;;;;3.40;3.10;;;20.90;1.00;;;;;;5065666;28;20562;-58
2022/10/15 10:21:42;;;;;;;3.17;2.87;;;21.00;1.00;;;;;;5048903;28;20467;-60
2022/10/15 10:24:24;;;;;;;5.30;3.13;;;21.00;1.00;;;;;;5058277;28;20748;-60
2022/10/15 10:26:50;;;;;;;3.63;2.87;;;21.00;1.00;;;;;;5050049;28;20445;-59
2022/10/15 10:29:20;;;;;;;5.40;3.63;;;20.80;1.00;;;;;;5049593;28;20979;-60
2022/10/15 10:31:50;;;;;;;4.60;3.83;;;20.70;1.00;;;;;;5048057;28;20194;-60
2022/10/15 10:34:20;;;;;;;4.03;3.73;;;20.50;1.00;;;;;;5045115;28;20451;-60
2022/10/15 10:36:51;;;;;;;3.50;3.20;;;20.50;1.00;;;;;;5046224;28;20421;-59
2022/10/15 10:39:25;;;;;;;4.03;3.73;;;20.60;1.00;;;;;;5050435;28;21045;-58
2022/10/15 10:42:04;;;;;;;3.60;3.30;;;20.50;1.00;;;;;;5051125;28;20840;-58
2022/10/15 10:44:35;;;;;;;3.63;3.33;;;20.50;1.00;;;;;;5054830;28;20450;-60
2022/10/15 10:47:20;;;;;;;3.50;3.30;;;20.60;1.00;;;;;;5045132;28;20476;-59
2022/10/15 10:49:54;;;;;;;4.33;3.93;;;20.50;1.00;;;;;;5047318;28;20440;-59
2022/10/15 10:52:19;;;;;;;4.37;3.70;;;20.30;1.00;;;;;;5049455;28;20441;-60
2022/10/15 10:54:47;;;;;;;4.00;3.70;;;20.40;1.00;;;;;;5054068;28;20818;-59
2022/10/15 10:57:16;;;;;;;4.33;3.53;;;20.20;1.00;;;;;;5050088;28;20190;-60
2022/10/15 10:59:50;;;;;;;3.20;3.00;;;20.10;1.00;;;;;;5049382;28;20861;-59
2022/10/15 11:02:15;;;;;;;3.47;3.27;;;20.10;1.00;;;;;;5047252;28;20952;-61
2022/10/15 11:04:41;;;;;;;3.13;2.80;;;20.00;1.00;;;;;;5047557;28;20544;-59
2022/10/15 11:07:18;;;;;;;3.80;3.50;;;19.90;1.00;;;;;;5047397;28;20542;-60
2022/10/15 11:09:59;;;;;;;3.93;3.63;;;19.80;1.00;;;;;;5048236;28;20189;-57
2022/10/15 11:12:30;;;;;;;3.80;3.50;;;19.70;1.00;;;;;;5052420;28;20924;-58
2022/10/15 11:15:17;;;;;;;4.07;3.77;;;19.80;1.00;;;;;;5055098;28;20511;-58
2022/10/15 11:17:43;;;;;;;3.80;3.50;;;19.90;1.00;;;;;;5048703;28;20480;-57
2022/10/15 11:20:31;;;;;;;3.70;3.40;;;20.00;1.00;;;;;;5049898;28;20407;-55
2022/10/15 11:23:12;;;;;;;4.23;3.73;;;19.90;1.00;;;;;;5042790;28;20248;-57
2022/10/15 11:25:40;;;;;;;3.40;3.10;;;19.80;1.00;;;;;;5047798;28;20449;-56
2022/10/15 11:28:24;;;;;;;3.50;3.30;;;19.70;1.00;;;;;;5042320;28;21039;-56
2022/10/15 11:31:11;;;;;;;4.07;3.77;;;19.70;1.00;;;;;;5046231;28;22554;-55
2022/10/15 11:33:58;;;;;;;4.03;3.73;;;19.60;1.00;;;;;;5050572;28;20484;-63
2022/10/15 11:36:38;;;;;;;5.03;4.10;;;19.60;1.00;;;;;;5043016;28;20461;-63
2022/10/15 11:39:10;;;;;;;4.37;3.13;;;19.60;1.00;;;;;;5045630;28;20557;-65
2022/10/15 11:42:02;;;;;;;3.30;3.10;;;19.70;1.00;;;;;;5046654;28;20919;-64
2022/10/15 11:44:33;;;;;;;3.73;3.43;;;19.70;1.00;;;;;;5060343;28;20518;-63
2022/10/15 11:47:40;;;;;;;4.03;3.73;;;19.80;1.00;;;;;;5048092;28;20979;-63
2022/10/15 11:50:20;;;;;;;3.90;3.57;;;19.90;1.00;;;;;;5046048;28;20763;-64
2022/10/15 11:52:49;;;;;;;3.53;3.23;;;20.00;1.00;;;;;;5046653;28;20445;-66
2022/10/15 11:55:22;;;;;;;4.23;3.93;;;20.30;1.00;;;;;;5049314;28;20458;-64
2022/10/15 11:57:51;;;;;;;3.30;3.10;;;20.50;1.00;;;;;;5048306;28;20532;-64
2022/10/15 12:00:26;;;;;;;4.27;3.87;;;20.60;1.00;;;;;;5048461;28;20439;-64
2022/10/15 12:02:53;;;;;;;3.87;3.57;;;20.60;1.00;;;;;;5046666;28;20937;-63
2022/10/15 12:05:27;;;;;;;3.30;3.00;;;20.70;1.00;;;;;;5046613;28;20436;-64
2022/10/15 12:07:54;;;;;;;3.63;3.30;;;20.90;1.00;;;;;;5049554;28;20744;-64
2022/10/15 12:10:35;;;;;;;3.43;3.13;;;21.20;1.00;;;;;;5059071;28;20671;-63
2022/10/15 12:13:06;;;;;;;3.47;3.17;;;21.30;1.00;;;;;;5050690;28;20441;-64
2022/10/15 12:15:54;;;;;;;2.80;2.60;;;21.30;1.00;;;;;;5046766;28;20455;-64
2022/10/15 12:18:35;;;;;;;3.20;2.97;;;21.30;1.00;;;;;;5052406;28;20574;-63
2022/10/15 12:21:01;;;;;;;4.13;2.67;;;21.10;1.00;;;;;;5053563;28;20902;-64
2022/10/15 12:23:35;;;;;;;3.23;2.73;;;21.10;1.00;;;;;;5046915;28;20448;-64
2022/10/15 12:26:21;;;;;;;2.90;2.70;;;21.00;1.00;;;;;;5050006;28;20192;-64
2022/10/15 12:28:49;;;;;;;3.20;3.00;;;20.90;1.00;;;;;;5049829;28;20458;-65
2022/10/15 12:31:19;;;;;;;3.40;3.10;;;20.90;1.00;;;;;;5049644;28;20454;-63
2022/10/15 12:33:56;;;;;;;2.93;2.63;;;20.90;1.00;;;;;;5049488;28;20896;-64
2022/10/15 12:36:30;;;;;;;2.40;2.20;;;20.80;1.00;;;;;;5048161;28;20440;-60
2022/10/15 12:39:01;;;;;;;3.60;3.13;;;20.70;1.00;;;;;;5049113;28;20475;-59
2022/10/15 12:41:42;;;;;;;1.97;1.77;;;20.40;1.00;;;;;;5055628;28;20460;-59
2022/10/15 12:44:30;;;;;;;1.87;1.60;;;20.20;1.00;;;;;;5054167;28;20883;-60
2022/10/15 12:46:57;;;;;;;2.13;1.90;;;20.40;1.00;;;;;;5052402;28;20459;-60
2022/10/15 12:49:26;;;;;;;1.33;1.23;;;20.60;1.00;;;;;;5051503;28;20933;-60
2022/10/15 12:51:53;;;;;;;1.87;1.23;;;20.80;1.00;;;;;;5047190;28;20610;-60
2022/10/15 12:54:35;;;;;;;1.87;1.77;;;20.90;1.00;;;;;;5051122;28;20456;-60
2022/10/15 12:57:03;;;;;;;2.80;1.73;;;20.90;1.00;;;;;;5051570;28;20458;-60
2022/10/15 12:59:42;;;;;;;1.23;1.03;;;20.90;1.00;;;;;;5052881;28;20815;-60
2022/10/15 13:02:38;;;;;;;1.50;0.90;;;21.00;1.00;;;;;;5049573;28;21976;-60
2022/10/15 13:05:06;;;;;;;1.07;0.97;;;21.20;1.00;;;;;;5047432;28;20473;-61